Time;durP1;ratioP1;P1;durP2;ratioP2;P2;SDS_P1;SDS_P2;PMS_P1;PMS_P2;Temp;Humidity;BMP_temperature;BMP_pressure;BME280_temperature;BME280_humidity;BME280_pressure;Samples;Min_cycle;Max_cycle;Signal;HPM_P1;HPM_P2
2023/04/18 00:00:37;;;;;;;8.53;7.70;;;;;;;;;;5074196;28;20480;-60
2023/04/18 00:03:08;;;;;;;8.17;7.47;;;;;;;;;;5074298;28;20430;-60
2023/04/18 00:05:35;;;;;;;9.00;8.40;;;;;;;;;;5074308;28;20398;-60
2023/04/18 00:08:01;;;;;;;8.97;8.07;;;;;;;;;;5074181;28;20921;-59
2023/04/18 00:10:29;;;;;;;8.50;7.77;;;;;;;;;;5074177;28;20420;-59
2023/04/18 00:12:59;;;;;;;7.80;7.30;;;;;;;;;;5073977;28;20517;-59
2023/04/18 00:15:25;;;;;;;8.93;8.13;;;;;;;;;;5074512;28;20759;-59
2023/04/18 00:17:54;;;;;;;8.50;7.70;;;;;;;;;;5073878;28;20492;-60
2023/04/18 00:20:21;;;;;;;7.47;7.03;;;;;;;;;;5074049;28;20472;-60
2023/04/18 00:22:47;;;;;;;8.33;7.70;;;;;;;;;;5073893;28;20402;-59
2023/04/18 00:25:13;;;;;;;8.20;7.60;;;;;;;;;;5074010;28;20921;-59
2023/04/18 00:27:39;;;;;;;8.23;7.53;;;;;;;;;;5073956;28;20404;-60
2023/04/18 00:30:05;;;;;;;7.90;7.30;;;;;;;;;;5073739;28;20434;-60
2023/04/18 00:32:32;;;;;;;7.67;7.27;;;;;;;;;;5073883;28;20417;-60
2023/04/18 00:34:58;;;;;;;8.00;7.50;;;;;;;;;;5073440;28;20417;-59
2023/04/18 00:37:26;;;;;;;8.20;7.70;;;;;;;;;;5073698;28;20430;-60
2023/04/18 00:39:52;;;;;;;7.33;6.93;;;;;;;;;;5073398;28;20461;-59
2023/04/18 00:42:18;;;;;;;7.43;7.03;;;;;;;;;;5073697;28;20429;-59
2023/04/18 00:44:44;;;;;;;7.93;7.33;;;;;;;;;;5073462;28;20425;-59
2023/04/18 00:47:10;;;;;;;7.23;6.83;;;;;;;;;;5073351;28;20438;-59
2023/04/18 00:49:36;;;;;;;8.37;7.80;;;;;;;;;;5073434;28;20421;-61
2023/04/18 00:52:02;;;;;;;9.60;6.87;;;;;;;;;;5073139;28;20442;-59
2023/04/18 00:54:29;;;;;;;6.63;6.13;;;;;;;;;;5071850;28;20456;-60
2023/04/18 00:56:55;;;;;;;7.70;7.20;;;;;;;;;;5073192;28;20408;-59
2023/04/18 00:59:21;;;;;;;7.23;6.90;;;;;;;;;;5072855;28;20511;-59
2023/04/18 01:01:47;;;;;;;7.83;7.33;;;;;;;;;;5073234;28;20425;-60
2023/04/18 01:04:13;;;;;;;7.00;6.70;;;;;;;;;;5072945;28;20483;-60
2023/04/18 01:06:39;;;;;;;8.07;7.53;;;;;;;;;;5073003;28;20475;-60
2023/04/18 01:09:08;;;;;;;7.60;7.03;;;;;;;;;;5072910;28;20434;-59
2023/04/18 01:11:34;;;;;;;8.00;7.40;;;;;;;;;;5072932;28;20406;-60
2023/04/18 01:14:07;;;;;;;8.87;8.27;;;;;;;;;;5072860;28;20410;-61
2023/04/18 01:16:33;;;;;;;8.33;7.83;;;;;;;;;;5072759;28;20485;-61
2023/04/18 01:19:03;;;;;;;9.27;8.67;;;;;;;;;;5072652;28;20929;-59
2023/04/18 01:21:34;;;;;;;13.70;7.63;;;;;;;;;;5071408;28;20460;-61
2023/04/18 01:24:06;;;;;;;7.10;6.70;;;;;;;;;;5072783;28;20505;-60
2023/04/18 01:26:32;;;;;;;7.80;7.30;;;;;;;;;;5072549;28;20837;-59
2023/04/18 01:28:58;;;;;;;11.40;8.03;;;;;;;;;;5072619;28;20425;-59
2023/04/18 01:31:26;;;;;;;6.87;6.40;;;;;;;;;;5072606;28;20818;-59
2023/04/18 01:33:52;;;;;;;8.27;7.47;;;;;;;;;;5072528;28;20460;-59
2023/04/18 01:36:18;;;;;;;6.47;6.17;;;;;;;;;;5072536;28;20421;-59
2023/04/18 01:38:44;;;;;;;6.93;6.53;;;;;;;;;;5072567;28;20405;-59
2023/04/18 01:41:10;;;;;;;6.93;6.50;;;;;;;;;;5072249;28;20540;-59
2023/04/18 01:43:36;;;;;;;7.67;7.17;;;;;;;;;;5071025;28;20932;-59
2023/04/18 01:46:02;;;;;;;7.40;7.00;;;;;;;;;;5071890;28;20450;-59
2023/04/18 01:48:28;;;;;;;6.57;6.17;;;;;;;;;;5070945;28;20457;-59
2023/04/18 01:50:54;;;;;;;7.80;7.10;;;;;;;;;;5072394;28;20920;-60
2023/04/18 01:53:20;;;;;;;7.40;6.97;;;;;;;;;;5072192;28;20469;-59
2023/04/18 01:55:48;;;;;;;6.50;6.10;;;;;;;;;;5070941;28;20913;-59
2023/04/18 01:58:15;;;;;;;7.13;6.73;;;;;;;;;;5072049;28;20417;-60
2023/04/18 02:00:41;;;;;;;7.30;6.80;;;;;;;;;;5072036;28;20977;-60
2023/04/18 02:03:07;;;;;;;7.10;6.57;;;;;;;;;;5071926;28;20376;-60
2023/04/18 02:05:36;;;;;;;7.23;6.73;;;;;;;;;;5072167;28;20795;-59
2023/04/18 02:08:02;;;;;;;7.23;6.80;;;;;;;;;;5072225;28;20418;-59
2023/04/18 02:10:28;;;;;;;7.63;7.10;;;;;;;;;;5072056;28;20434;-59
2023/04/18 02:12:54;;;;;;;7.70;7.20;;;;;;;;;;5072041;28;20410;-60
2023/04/18 02:15:20;;;;;;;7.70;7.20;;;;;;;;;;5072107;28;20406;-60
2023/04/18 02:17:47;;;;;;;7.83;7.03;;;;;;;;;;5072394;28;20782;-60
2023/04/18 02:20:14;;;;;;;8.30;7.60;;;;;;;;;;5071978;28;20458;-59
2023/04/18 02:22:40;;;;;;;6.87;6.47;;;;;;;;;;5072066;28;20973;-59
2023/04/18 02:25:06;;;;;;;8.77;8.07;;;;;;;;;;5072023;28;20417;-59
2023/04/18 02:27:32;;;;;;;8.57;7.97;;;;;;;;;;5072110;28;20437;-59
2023/04/18 02:29:58;;;;;;;8.10;7.50;;;;;;;;;;5072139;28;20424;-60
2023/04/18 02:32:27;;;;;;;9.50;8.80;;;;;;;;;;5072078;28;20609;-60
2023/04/18 02:34:55;;;;;;;9.00;8.20;;;;;;;;;;5072175;28;20408;-59
2023/04/18 02:37:21;;;;;;;9.07;8.30;;;;;;;;;;5071744;28;20441;-59
2023/04/18 02:39:50;;;;;;;9.07;8.27;;;;;;;;;;5071801;28;20489;-60
2023/04/18 02:42:16;;;;;;;10.70;9.77;;;;;;;;;;5071915;28;20414;-59
2023/04/18 02:44:42;;;;;;;9.77;8.97;;;;;;;;;;5070663;28;20438;-59
2023/04/18 02:47:08;;;;;;;10.83;9.73;;;;;;;;;;5071927;28;21102;-59
2023/04/18 02:49:34;;;;;;;10.10;9.20;;;;;;;;;;5071689;28;20443;-59
2023/04/18 02:52:00;;;;;;;9.47;8.57;;;;;;;;;;5071914;28;20425;-59
2023/04/18 02:54:28;;;;;;;9.63;8.90;;;;;;;;;;5071494;28;20417;-59
2023/04/18 02:56:55;;;;;;;12.03;10.57;;;;;;;;;;5071815;28;20476;-60
2023/04/18 02:59:21;;;;;;;10.03;9.23;;;;;;;;;;5074383;28;20484;-60
2023/04/18 03:01:50;;;;;;;11.00;9.87;;;;;;;;;;5075431;28;20406;-60
2023/04/18 03:04:16;;;;;;;10.50;9.60;;;;;;;;;;5075331;28;20450;-60
2023/04/18 03:06:42;;;;;;;10.47;9.47;;;;;;;;;;5075218;28;20528;-59
2023/04/18 03:09:10;;;;;;;10.37;9.47;;;;;;;;;;5075517;28;20401;-60
2023/04/18 03:11:36;;;;;;;10.47;9.57;;;;;;;;;;5075297;28;20417;-60
2023/04/18 03:14:02;;;;;;;11.90;10.80;;;;;;;;;;5075232;28;20409;-60
2023/04/18 03:16:28;;;;;;;10.60;9.70;;;;;;;;;;5075072;28;20466;-59
2023/04/18 03:18:55;;;;;;;11.30;10.30;;;;;;;;;;5075304;28;20406;-60
2023/04/18 03:21:21;;;;;;;12.13;10.80;;;;;;;;;;5074963;28;20824;-60
2023/04/18 03:23:47;;;;;;;12.73;10.73;;;;;;;;;;5073903;28;20533;-61
2023/04/18 03:26:15;;;;;;;11.77;10.70;;;;;;;;;;5075074;28;20417;-59
2023/04/18 03:28:44;;;;;;;13.63;11.33;;;;;;;;;;5074801;28;20540;-61
2023/04/18 03:31:11;;;;;;;12.77;11.50;;;;;;;;;;5075009;28;20426;-59
2023/04/18 03:33:38;;;;;;;12.93;11.70;;;;;;;;;;5074886;28;20959;-59
2023/04/18 03:36:04;;;;;;;14.10;12.70;;;;;;;;;;5074868;28;20402;-59
2023/04/18 03:38:30;;;;;;;13.57;12.20;;;;;;;;;;5074815;28;20402;-60
2023/04/18 03:40:56;;;;;;;13.80;12.40;;;;;;;;;;5074565;28;20495;-60
2023/04/18 03:43:22;;;;;;;13.60;12.13;;;;;;;;;;5074870;28;20421;-59
2023/04/18 03:45:49;;;;;;;14.00;12.53;;;;;;;;;;5074726;28;20404;-59
2023/04/18 03:48:15;;;;;;;13.97;12.60;;;;;;;;;;5074651;28;20441;-58
2023/04/18 03:50:41;;;;;;;15.23;13.63;;;;;;;;;;5074550;28;20425;-59
2023/04/18 03:53:07;;;;;;;17.17;13.70;;;;;;;;;;5074542;28;20917;-59
2023/04/18 03:55:33;;;;;;;16.13;14.40;;;;;;;;;;5074409;28;20398;-60
2023/04/18 03:57:59;;;;;;;15.50;14.00;;;;;;;;;;5074420;28;20409;-59
2023/04/18 04:00:25;;;;;;;15.80;14.20;;;;;;;;;;5074711;28;20617;-60
2023/04/18 04:02:51;;;;;;;16.63;14.47;;;;;;;;;;5074197;28;20564;-59
2023/04/18 04:05:17;;;;;;;20.53;15.60;;;;;;;;;;5074234;28;20505;-59
2023/04/18 04:07:43;;;;;;;21.90;15.67;;;;;;;;;;5074100;28;20437;-58
2023/04/18 04:10:09;;;;;;;18.40;16.10;;;;;;;;;;5073641;28;20417;-58
2023/04/18 04:12:35;;;;;;;18.13;16.20;;;;;;;;;;5073909;28;20410;-58
2023/04/18 04:15:03;;;;;;;18.33;16.43;;;;;;;;;;5073980;28;20911;-58
2023/04/18 04:17:29;;;;;;;24.53;16.07;;;;;;;;;;5074139;28;20450;-58
2023/04/18 04:19:55;;;;;;;20.03;16.80;;;;;;;;;;5073615;28;20493;-58
2023/04/18 04:22:21;;;;;;;20.27;17.43;;;;;;;;;;5072577;28;20406;-58
2023/04/18 04:24:47;;;;;;;26.57;19.30;;;;;;;;;;5073880;28;20438;-59
2023/04/18 04:27:13;;;;;;;27.33;22.10;;;;;;;;;;5073724;28;20449;-58
2023/04/18 04:29:42;;;;;;;20.17;17.67;;;;;;;;;;5073840;28;20453;-58
2023/04/18 04:32:08;;;;;;;24.77;18.73;;;;;;;;;;5074087;28;20908;-57
2023/04/18 04:34:35;;;;;;;24.00;19.30;;;;;;;;;;5073690;28;20430;-58
2023/04/18 04:37:01;;;;;;;24.83;17.73;;;;;;;;;;5073702;28;20897;-58
2023/04/18 04:39:27;;;;;;;23.20;18.53;;;;;;;;;;5073600;28;20418;-58
2023/04/18 04:41:53;;;;;;;25.93;18.63;;;;;;;;;;5073675;28;20440;-58
2023/04/18 04:44:21;;;;;;;23.50;18.90;;;;;;;;;;5073693;28;20900;-58
2023/04/18 04:46:48;;;;;;;25.03;20.50;;;;;;;;;;5072096;28;20418;-58
2023/04/18 04:49:14;;;;;;;30.83;20.07;;;;;;;;;;5073494;28;20416;-58
2023/04/18 04:51:40;;;;;;;28.50;21.43;;;;;;;;;;5073457;28;20777;-57
2023/04/18 04:54:09;;;;;;;24.60;19.60;;;;;;;;;;5073732;28;20394;-58
2023/04/18 04:56:35;;;;;;;26.60;19.90;;;;;;;;;;5073534;28;20422;-58
2023/04/18 04:59:03;;;;;;;97.23;62.73;;;;;;;;;;5073215;28;20457;-58
2023/04/18 05:01:32;;;;;;;28.17;22.20;;;;;;;;;;5073183;28;20440;-59
2023/04/18 05:03:58;;;;;;;26.73;21.30;;;;;;;;;;5073066;28;20426;-59
2023/04/18 05:06:24;;;;;;;29.67;22.43;;;;;;;;;;5073786;28;20401;-58
2023/04/18 05:08:50;;;;;;;31.10;22.80;;;;;;;;;;5073256;28;20412;-59
2023/04/18 05:11:17;;;;;;;27.60;22.30;;;;;;;;;;5073217;28;20463;-59
2023/04/18 05:13:42;;;;;;;29.63;21.97;;;;;;;;;;5073195;28;20449;-58
2023/04/18 05:16:11;;;;;;;26.10;21.23;;;;;;;;;;5073098;28;20461;-59
2023/04/18 05:18:40;;;;;;;27.30;21.07;;;;;;;;;;5072217;28;20445;-59
2023/04/18 05:21:06;;;;;;;28.30;21.43;;;;;;;;;;5072368;28;20812;-58
2023/04/18 05:23:33;;;;;;;26.83;22.07;;;;;;;;;;5072891;28;20425;-58
2023/04/18 05:25:59;;;;;;;27.40;22.40;;;;;;;;;;5073176;28;21014;-59
2023/04/18 05:28:26;;;;;;;31.43;23.13;;;;;;;;;;5071982;28;21015;-59
2023/04/18 05:30:59;;;;;;;31.87;24.30;;;;;;;;;;5072872;28;20436;-58
2023/04/18 05:33:28;;;;;;;30.80;22.53;;;;;;;;;;5072842;28;20890;-59
2023/04/18 05:35:54;;;;;;;25.63;21.57;;;;;;;;;;5072696;28;20381;-59
2023/04/18 05:38:20;;;;;;;27.23;22.60;;;;;;;;;;5072725;28;20978;-58
2023/04/18 05:40:47;;;;;;;32.63;23.77;;;;;;;;;;5072741;28;20536;-59
2023/04/18 05:43:12;;;;;;;27.67;21.70;;;;;;;;;;5072526;28;20460;-58
2023/04/18 05:45:39;;;;;;;27.40;22.47;;;;;;;;;;5072791;28;20406;-59
2023/04/18 05:48:05;;;;;;;31.67;23.07;;;;;;;;;;5072676;28;20438;-58
2023/04/18 05:50:31;;;;;;;30.83;22.70;;;;;;;;;;5072672;28;20936;-58
2023/04/18 05:52:58;;;;;;;25.40;20.67;;;;;;;;;;5072226;28;20414;-58
2023/04/18 05:55:24;;;;;;;29.37;22.13;;;;;;;;;;5071997;28;20426;-57
2023/04/18 05:57:50;;;;;;;29.80;21.80;;;;;;;;;;5072148;28;20439;-59
2023/04/18 06:00:19;;;;;;;29.40;21.20;;;;;;;;;;5072150;28;20539;-58
2023/04/18 06:02:45;;;;;;;28.10;22.00;;;;;;;;;;5072280;28;20978;-58
2023/04/18 06:05:11;;;;;;;28.53;22.90;;;;;;;;;;5071100;28;20438;-58
2023/04/18 06:07:37;;;;;;;30.23;22.73;;;;;;;;;;5072326;28;20931;-58
2023/04/18 06:10:07;;;;;;;26.73;22.10;;;;;;;;;;5072395;28;20600;-58
2023/04/18 06:12:33;;;;;;;27.93;22.77;;;;;;;;;;5072289;28;20426;-58
2023/04/18 06:14:59;;;;;;;32.50;22.37;;;;;;;;;;5072255;28;20419;-57
2023/04/18 06:17:25;;;;;;;31.40;24.47;;;;;;;;;;5072120;28;20417;-58
2023/04/18 06:19:51;;;;;;;30.37;23.80;;;;;;;;;;5072179;28;20952;-58
2023/04/18 06:22:20;;;;;;;25.97;22.20;;;;;;;;;;5072092;28;20430;-58
2023/04/18 06:24:46;;;;;;;24.67;20.90;;;;;;;;;;5072436;28;20765;-58
2023/04/18 06:27:12;;;;;;;28.03;21.70;;;;;;;;;;5072066;28;20409;-57
2023/04/18 06:29:38;;;;;;;25.30;21.73;;;;;;;;;;5072122;28;20832;-58
2023/04/18 06:32:04;;;;;;;25.30;21.40;;;;;;;;;;5072782;28;20413;-58
2023/04/18 06:34:33;;;;;;;23.17;20.67;;;;;;;;;;5076122;28;20410;-57
2023/04/18 06:36:59;;;;;;;26.17;20.33;;;;;;;;;;5076134;28;20479;-57
2023/04/18 06:39:26;;;;;;;28.40;21.40;;;;;;;;;;5075938;28;20448;-57
2023/04/18 06:41:52;;;;;;;25.50;20.10;;;;;;;;;;5076146;28;20406;-58
2023/04/18 06:44:18;;;;;;;24.37;20.67;;;;;;;;;;5075861;28;20414;-57
2023/04/18 06:46:45;;;;;;;28.73;22.13;;;;;;;;;;5076101;28;20417;-57
2023/04/18 06:49:11;;;;;;;36.13;23.73;;;;;;;;;;5075918;28;20484;-58
2023/04/18 06:51:36;;;;;;;25.03;22.00;;;;;;;;;;5075816;28;20425;-58
2023/04/18 06:54:02;;;;;;;24.80;21.00;;;;;;;;;;5075578;28;20484;-57
2023/04/18 06:56:28;;;;;;;29.03;20.23;;;;;;;;;;5075437;28;20429;-58
2023/04/18 06:58:54;;;;;;;28.67;22.20;;;;;;;;;;5075515;28;20487;-58
2023/04/18 07:01:23;;;;;;;26.40;22.63;;;;;;;;;;5074045;28;20477;-57
2023/04/18 07:03:49;;;;;;;27.67;22.27;;;;;;;;;;5075761;28;20780;-58
2023/04/18 07:06:19;;;;;;;24.47;21.77;;;;;;;;;;5074598;28;20446;-58
2023/04/18 07:08:45;;;;;;;26.10;20.53;;;;;;;;;;5075569;28;20410;-58
2023/04/18 07:11:14;;;;;;;26.93;21.30;;;;;;;;;;5075648;28;20414;-57
2023/04/18 07:13:40;;;;;;;31.00;22.30;;;;;;;;;;5075566;28;20388;-58
2023/04/18 07:16:06;;;;;;;24.83;21.13;;;;;;;;;;5075554;28;20421;-58
2023/04/18 07:18:32;;;;;;;28.63;22.57;;;;;;;;;;5075246;28;20512;-58
2023/04/18 07:20:58;;;;;;;28.60;21.80;;;;;;;;;;5075262;28;20897;-57
2023/04/18 07:23:24;;;;;;;27.20;20.43;;;;;;;;;;5073836;28;20446;-57
2023/04/18 07:25:51;;;;;;;25.77;20.90;;;;;;;;;;5075056;28;20453;-58
2023/04/18 07:28:17;;;;;;;23.97;20.67;;;;;;;;;;5075116;28;20479;-58
2023/04/18 07:30:43;;;;;;;25.13;19.63;;;;;;;;;;5075098;28;20429;-56
2023/04/18 07:33:09;;;;;;;25.00;20.93;;;;;;;;;;5075053;28;20414;-58
2023/04/18 07:35:35;;;;;;;25.97;21.13;;;;;;;;;;5075191;28;20991;-58
2023/04/18 07:38:01;;;;;;;25.03;20.07;;;;;;;;;;5075087;28;20411;-57
2023/04/18 07:40:27;;;;;;;30.83;20.47;;;;;;;;;;5075221;28;20580;-58
2023/04/18 07:42:53;;;;;;;28.73;21.40;;;;;;;;;;5075107;28;20442;-56
2023/04/18 07:45:19;;;;;;;28.87;21.30;;;;;;;;;;5073944;28;20521;-56
2023/04/18 07:47:45;;;;;;;26.90;21.10;;;;;;;;;;5073229;28;20973;-56
2023/04/18 07:50:11;;;;;;;24.40;21.80;;;;;;;;;;5074715;28;20441;-56
2023/04/18 07:52:37;;;;;;;25.37;20.50;;;;;;;;;;5074887;28;20433;-57
2023/04/18 07:55:03;;;;;;;23.90;20.33;;;;;;;;;;5074542;28;20414;-56
2023/04/18 07:57:29;;;;;;;23.60;20.40;;;;;;;;;;5074318;28;20438;-56
2023/04/18 07:59:55;;;;;;;24.70;21.93;;;;;;;;;;5074186;28;20607;-57
2023/04/18 08:02:21;;;;;;;35.70;20.77;;;;;;;;;;5074721;28;20438;-57
2023/04/18 08:04:48;;;;;;;27.53;20.77;;;;;;;;;;5074142;28;20497;-58
2023/04/18 08:07:15;;;;;;;24.47;19.70;;;;;;;;;;5074290;28;20919;-56
2023/04/18 08:09:41;;;;;;;27.10;21.50;;;;;;;;;;5074053;28;20452;-57
2023/04/18 08:12:07;;;;;;;32.93;21.20;;;;;;;;;;5073884;28;20904;-57
2023/04/18 08:14:33;;;;;;;25.00;20.20;;;;;;;;;;5074131;28;20421;-57
2023/04/18 08:16:59;;;;;;;22.30;19.80;;;;;;;;;;5074156;28;20503;-57
2023/04/18 08:19:25;;;;;;;26.30;20.80;;;;;;;;;;5074186;28;20536;-56
2023/04/18 08:21:51;;;;;;;26.77;20.57;;;;;;;;;;5074116;28;20775;-57
2023/04/18 08:24:17;;;;;;;23.30;19.27;;;;;;;;;;5074354;28;20473;-57
2023/04/18 08:26:43;;;;;;;23.50;20.00;;;;;;;;;;5073887;28;20429;-58
2023/04/18 08:29:09;;;;;;;24.73;19.57;;;;;;;;;;5073792;28;20413;-58
2023/04/18 08:31:35;;;;;;;24.43;20.47;;;;;;;;;;5073902;28;20398;-56
2023/04/18 08:34:01;;;;;;;28.73;20.93;;;;;;;;;;5073675;28;20496;-57
2023/04/18 08:36:30;;;;;;;24.10;19.83;;;;;;;;;;5073607;28;20533;-58
2023/04/18 08:38:56;;;;;;;22.87;18.60;;;;;;;;;;5073598;28;20501;-58
2023/04/18 08:41:25;;;;;;;26.30;20.00;;;;;;;;;;5073566;28;20474;-58
2023/04/18 08:43:51;;;;;;;26.70;20.43;;;;;;;;;;5073586;28;20452;-57
2023/04/18 08:46:17;;;;;;;22.10;19.20;;;;;;;;;;5073543;28;20864;-57
2023/04/18 08:48:43;;;;;;;23.03;19.60;;;;;;;;;;5073412;28;20893;-57
2023/04/18 08:51:10;;;;;;;30.97;19.43;;;;;;;;;;5072051;28;20430;-58
2023/04/18 08:53:36;;;;;;;24.17;19.30;;;;;;;;;;5073396;28;20424;-58
2023/04/18 08:56:04;;;;;;;21.63;19.17;;;;;;;;;;5073340;28;20760;-58
2023/04/18 08:58:32;;;;;;;24.10;19.20;;;;;;;;;;5073179;28;20458;-57
2023/04/18 09:00:58;;;;;;;23.67;19.70;;;;;;;;;;5073171;28;20461;-57
2023/04/18 09:03:38;;;;;;;21.00;18.43;;;;;;;;;;5073042;28;20443;-57
2023/04/18 09:06:12;;;;;;;26.87;20.67;;;;;;;;;;5073093;28;20413;-58
2023/04/18 09:08:40;;;;;;;34.80;24.10;;;;;;;;;;5073084;28;20515;-57
2023/04/18 09:11:21;;;;;;;23.27;18.60;;;;;;;;;;5073583;28;20429;-58
2023/04/18 09:13:47;;;;;;;23.70;19.13;;;;;;;;;;5073695;28;20897;-58
2023/04/18 09:16:15;;;;;;;22.23;19.50;;;;;;;;;;5073711;28;20413;-57
2023/04/18 09:18:44;;;;;;;24.10;20.43;;;;;;;;;;5074504;28;20406;-58
2023/04/18 09:21:19;;;;;;;24.17;19.80;;;;;;;;;;5073667;28;20461;-59
2023/04/18 09:23:46;;;;;;;20.40;18.20;;;;;;;;;;5074399;28;20478;-58
2023/04/18 09:26:12;;;;;;;24.93;20.27;;;;;;;;;;5072077;28;20453;-58
2023/04/18 09:28:40;;;;;;;22.13;19.07;;;;;;;;;;5073205;28;20418;-58
2023/04/18 09:31:14;;;;;;;21.70;19.17;;;;;;;;;;5072853;28;20422;-58
2023/04/18 09:33:45;;;;;;;20.20;18.20;;;;;;;;;;5073186;28;20406;-58
2023/04/18 09:36:25;;;;;;;24.77;18.20;;;;;;;;;;5073032;28;20491;-58
2023/04/18 09:38:52;;;;;;;26.93;19.80;;;;;;;;;;5072862;28;20410;-57
2023/04/18 09:41:21;;;;;;;22.00;18.43;;;;;;;;;;5072839;28;20467;-58
2023/04/18 09:43:47;;;;;;;24.03;18.33;;;;;;;;;;5072849;28;20402;-58
2023/04/18 09:46:14;;;;;;;24.20;18.93;;;;;;;;;;5073048;28;20432;-57
2023/04/18 09:48:40;;;;;;;22.23;19.80;;;;;;;;;;5072850;28;20439;-56
2023/04/18 09:51:12;;;;;;;20.67;18.47;;;;;;;;;;5072759;28;20418;-57
2023/04/18 09:53:39;;;;;;;21.33;18.67;;;;;;;;;;5072456;28;20422;-56
2023/04/18 09:56:09;;;;;;;22.30;17.97;;;;;;;;;;5071019;28;20437;-57
2023/04/18 09:58:39;;;;;;;21.97;18.27;;;;;;;;;;5072585;28;20795;-57
2023/04/18 10:01:06;;;;;;;24.90;18.20;;;;;;;;;;5072230;28;20489;-56
2023/04/18 10:03:33;;;;;;;23.07;18.80;;;;;;;;;;5071333;28;20441;-57
2023/04/18 10:06:05;;;;;;;20.57;18.30;;;;;;;;;;5072452;28;20436;-57
2023/04/18 10:08:33;;;;;;;23.77;17.83;;;;;;;;;;5072200;28;20877;-57
2023/04/18 10:11:00;;;;;;;20.43;17.53;;;;;;;;;;5072154;28;20522;-57
2023/04/18 10:13:26;;;;;;;27.80;18.20;;;;;;;;;;5072206;28;20410;-56
2023/04/18 10:15:53;;;;;;;23.40;18.53;;;;;;;;;;5072329;28;20438;-56
2023/04/18 10:18:22;;;;;;;31.33;17.70;;;;;;;;;;5072668;28;20407;-57
2023/04/18 10:20:48;;;;;;;20.40;18.00;;;;;;;;;;5072317;28;20522;-57
2023/04/18 10:23:33;;;;;;;24.70;19.37;;;;;;;;;;5070814;28;20419;-58
2023/04/18 10:26:02;;;;;;;21.80;18.00;;;;;;;;;;5072202;28;20445;-57
2023/04/18 10:28:47;;;;;;;20.53;17.17;;;;;;;;;;5072474;28;20437;-58
2023/04/18 10:31:15;;;;;;;26.10;19.00;;;;;;;;;;5072005;28;20828;-57
2023/04/18 10:33:48;;;;;;;18.80;16.80;;;;;;;;;;5072413;28;20759;-57
2023/04/18 10:36:19;;;;;;;20.80;18.20;;;;;;;;;;5070916;28;20445;-58
2023/04/18 10:39:08;;;;;;;26.70;18.47;;;;;;;;;;5072342;28;20467;-57
2023/04/18 10:41:37;;;;;;;23.90;17.20;;;;;;;;;;5067136;28;20885;-58
2023/04/18 10:44:05;;;;;;;22.10;19.03;;;;;;;;;;5072281;28;20436;-58
2023/04/18 10:46:34;;;;;;;22.43;19.63;;;;;;;;;;5071282;28;20428;-57
2023/04/18 10:49:18;;;;;;;23.10;17.63;;;;;;;;;;5072164;28;20406;-57
2023/04/18 10:51:45;;;;;;;22.50;18.03;;;;;;;;;;5072360;28;20909;-57
2023/04/18 10:54:13;;;;;;;23.93;19.20;;;;;;;;;;5072429;28;20414;-57
2023/04/18 10:56:39;;;;;;;23.93;18.37;;;;;;;;;;5072092;28;20887;-58
2023/04/18 10:59:07;;;;;;;22.40;18.07;;;;;;;;;;5071760;28;20452;-57
2023/04/18 11:01:36;;;;;;;21.97;17.57;;;;;;;;;;5071756;28;20462;-56
2023/04/18 11:04:10;;;;;;;24.43;17.27;;;;;;;;;;5072210;28;20822;-56
2023/04/18 11:06:46;;;;;;;18.43;16.47;;;;;;;;;;5072097;28;20765;-56
2023/04/18 11:09:13;;;;;;;18.90;16.90;;;;;;;;;;5071826;28;20893;-57
2023/04/18 11:11:40;;;;;;;18.70;16.70;;;;;;;;;;5072239;28;20462;-56
2023/04/18 11:14:08;;;;;;;21.77;16.97;;;;;;;;;;5071961;28;20451;-56
2023/04/18 11:16:34;;;;;;;19.60;17.53;;;;;;;;;;5071828;28;20440;-57
2023/04/18 11:19:00;;;;;;;19.40;17.30;;;;;;;;;;5072367;28;20422;-57
2023/04/18 11:21:30;;;;;;;18.33;16.33;;;;;;;;;;5075301;28;20476;-57
2023/04/18 11:23:56;;;;;;;20.53;18.17;;;;;;;;;;5075465;28;20433;-57
2023/04/18 11:26:25;;;;;;;27.10;20.93;;;;;;;;;;5075344;28;20850;-58
2023/04/18 11:28:55;;;;;;;19.53;17.47;;;;;;;;;;5075454;28;20414;-57
2023/04/18 11:31:25;;;;;;;19.00;16.90;;;;;;;;;;5075318;28;20788;-57
2023/04/18 11:33:51;;;;;;;19.30;16.73;;;;;;;;;;5075372;28;20412;-58
2023/04/18 11:36:17;;;;;;;24.50;16.20;;;;;;;;;;5075220;28;20441;-58
2023/04/18 11:38:43;;;;;;;18.50;16.43;;;;;;;;;;5075213;28;20410;-58
2023/04/18 11:41:13;;;;;;;21.37;17.83;;;;;;;;;;5075097;28;20466;-57
2023/04/18 11:43:41;;;;;;;19.90;17.40;;;;;;;;;;5075174;28;20410;-57
2023/04/18 11:46:10;;;;;;;18.80;16.50;;;;;;;;;;5074946;28;20438;-57
2023/04/18 11:48:40;;;;;;;21.47;17.83;;;;;;;;;;5074797;28;20419;-58
2023/04/18 11:51:07;;;;;;;21.23;16.50;;;;;;;;;;5075092;28;20446;-56
2023/04/18 11:53:37;;;;;;;20.60;17.13;;;;;;;;;;5074962;28;20433;-57
2023/04/18 11:56:03;;;;;;;17.53;15.63;;;;;;;;;;5074375;28;20925;-57
2023/04/18 11:58:31;;;;;;;22.63;16.97;;;;;;;;;;5074703;28;20434;-57
2023/04/18 12:00:57;;;;;;;18.20;16.30;;;;;;;;;;5074782;28;20473;-57
2023/04/18 12:03:23;;;;;;;27.50;16.70;;;;;;;;;;5074569;28;20424;-57
2023/04/18 12:05:57;;;;;;;18.00;16.17;;;;;;;;;;5074561;28;20434;-57
2023/04/18 12:08:25;;;;;;;19.77;16.70;;;;;;;;;;5074658;28;20840;-58
2023/04/18 12:10:52;;;;;;;21.33;17.13;;;;;;;;;;5074869;28;20910;-58
2023/04/18 12:13:19;;;;;;;23.43;15.87;;;;;;;;;;5074455;28;20414;-58
2023/04/18 12:15:46;;;;;;;22.30;16.37;;;;;;;;;;5073147;28;20524;-57
2023/04/18 12:18:12;;;;;;;19.20;16.60;;;;;;;;;;5074591;28;20452;-57
2023/04/18 12:20:38;;;;;;;18.40;16.27;;;;;;;;;;5074236;28;20535;-57
2023/04/18 12:23:05;;;;;;;19.30;16.57;;;;;;;;;;5074309;28;20416;-57
2023/04/18 12:25:31;;;;;;;20.70;17.67;;;;;;;;;;5074312;28;20410;-58
2023/04/18 12:28:02;;;;;;;18.90;16.90;;;;;;;;;;5074207;28;20413;-58
2023/04/18 12:30:32;;;;;;;20.47;16.90;;;;;;;;;;5073910;28;20414;-58
2023/04/18 12:33:02;;;;;;;21.80;18.60;;;;;;;;;;5073775;28;20418;-58
2023/04/18 12:35:28;;;;;;;18.67;16.77;;;;;;;;;;5073981;28;20413;-58
2023/04/18 12:37:55;;;;;;;20.53;17.70;;;;;;;;;;5073592;28;20433;-58
2023/04/18 12:40:22;;;;;;;26.80;21.33;;;;;;;;;;5073819;28;20465;-58
2023/04/18 12:42:50;;;;;;;24.83;16.90;;;;;;;;;;5073672;28;20959;-58
2023/04/18 12:45:16;;;;;;;18.97;17.07;;;;;;;;;;5073493;28;20429;-60
2023/04/18 12:47:43;;;;;;;22.07;17.97;;;;;;;;;;5073559;28;20801;-59
2023/04/18 12:50:11;;;;;;;20.10;17.93;;;;;;;;;;5073896;28;20505;-60
2023/04/18 12:52:38;;;;;;;23.93;16.87;;;;;;;;;;5073504;28;20828;-59
2023/04/18 12:55:05;;;;;;;24.27;18.03;;;;;;;;;;5073687;28;20448;-60
2023/04/18 12:57:31;;;;;;;21.20;16.27;;;;;;;;;;5073584;28;20939;-59
2023/04/18 12:59:57;;;;;;;18.80;16.80;;;;;;;;;;5073233;28;20457;-59
2023/04/18 13:02:23;;;;;;;20.23;17.80;;;;;;;;;;5073316;28;20897;-59
2023/04/18 13:04:50;;;;;;;21.30;17.83;;;;;;;;;;5073559;28;20414;-58
2023/04/18 13:07:17;;;;;;;21.87;16.97;;;;;;;;;;5073510;28;20434;-58
2023/04/18 13:09:43;;;;;;;21.93;17.00;;;;;;;;;;5072872;28;20418;-58
2023/04/18 13:12:09;;;;;;;20.43;17.27;;;;;;;;;;5073338;28;20414;-58
2023/04/18 13:14:35;;;;;;;19.73;17.67;;;;;;;;;;5072972;28;20921;-58
2023/04/18 13:17:01;;;;;;;20.80;17.47;;;;;;;;;;5073169;28;20688;-58
2023/04/18 13:19:27;;;;;;;23.40;17.90;;;;;;;;;;5071636;28;20415;-59
2023/04/18 13:21:56;;;;;;;20.17;16.53;;;;;;;;;;5072798;28;20505;-60
2023/04/18 13:24:22;;;;;;;21.43;17.23;;;;;;;;;;5071786;28;20425;-59
2023/04/18 13:26:48;;;;;;;28.13;16.40;;;;;;;;;;5072821;28;20438;-59
2023/04/18 13:29:14;;;;;;;19.10;16.60;;;;;;;;;;5068900;28;20882;-58
2023/04/18 13:31:40;;;;;;;19.17;17.10;;;;;;;;;;5056700;28;20431;-58
2023/04/18 13:34:06;;;;;;;22.40;17.87;;;;;;;;;;5067925;28;20775;-59
2023/04/18 13:36:33;;;;;;;19.43;17.40;;;;;;;;;;5068597;28;20447;-58
2023/04/18 13:39:00;;;;;;;18.27;16.20;;;;;;;;;;5052608;28;20444;-58
2023/04/18 13:41:26;;;;;;;19.83;16.17;;;;;;;;;;5053346;28;20455;-59
2023/04/18 13:43:52;;;;;;;22.30;16.27;;;;;;;;;;5052835;28;20440;-59
2023/04/18 13:46:18;;;;;;;22.57;16.43;;;;;;;;;;5051776;28;20421;-59
2023/04/18 13:48:46;;;;;;;20.33;17.70;;;;;;;;;;5052593;28;20854;-57
2023/04/18 13:51:12;;;;;;;18.33;16.07;;;;;;;;;;5054416;28;20510;-59
2023/04/18 13:53:38;;;;;;;31.87;20.77;;;;;;;;;;5055703;28;20463;-59
2023/04/18 13:56:04;;;;;;;20.27;18.27;;;;;;;;;;5061660;28;20431;-57
2023/04/18 13:58:33;;;;;;;21.90;16.80;;;;;;;;;;5071901;28;20457;-58
2023/04/18 14:00:59;;;;;;;18.33;16.43;;;;;;;;;;5071561;28;20472;-59
2023/04/18 14:03:26;;;;;;;30.63;16.70;;;;;;;;;;5071971;28;20913;-58
2023/04/18 14:05:52;;;;;;;17.97;16.27;;;;;;;;;;5071760;28;20389;-58
2023/04/18 14:08:20;;;;;;;18.50;15.60;;;;;;;;;;5071873;28;20774;-58
2023/04/18 14:10:46;;;;;;;21.97;17.27;;;;;;;;;;5071965;28;20408;-59
2023/04/18 14:13:12;;;;;;;22.87;15.93;;;;;;;;;;5071959;28;20508;-58
2023/04/18 14:15:38;;;;;;;19.50;17.27;;;;;;;;;;5072146;28;20440;-58
2023/04/18 14:18:05;;;;;;;17.80;15.87;;;;;;;;;;5071833;28;20461;-59
2023/04/18 14:20:33;;;;;;;20.63;15.90;;;;;;;;;;5071694;28;20543;-57
2023/04/18 14:23:02;;;;;;;20.30;17.53;;;;;;;;;;5070579;28;20428;-59